sensor_id;sensor_type;location;lat;lon;timestamp;temperature;humidity
52451;DHT22;38366;53.176;6.540;2023-02-16T00:01:20;5.60;99.90
52451;DHT22;38366;53.176;6.540;2023-02-16T00:03:46;5.60;99.90
52451;DHT22;38366;53.176;6.540;2023-02-16T00:06:12;5.60;99.90
52451;DHT22;38366;53.176;6.540;2023-02-16T00:08:51;5.60;99.90
52451;DHT22;38366;53.176;6.540;2023-02-16T00:11:27;5.60;99.90
52451;DHT22;38366;53.176;6.540;2023-02-16T00:14:14;5.50;99.90
52451;DHT22;38366;53.176;6.540;2023-02-16T00:16:40;5.50;99.90
52451;DHT22;38366;53.176;6.540;2023-02-16T00:19:19;5.50;99.90
52451;DHT22;38366;53.176;6.540;2023-02-16T00:21:47;5.50;99.90
52451;DHT22;38366;53.176;6.540;2023-02-16T00:24:13;5.50;99.90
52451;DHT22;38366;53.176;6.540;2023-02-16T00:26:40;5.50;99.90
52451;DHT22;38366;53.176;6.540;2023-02-16T00:29:05;5.50;99.90
52451;DHT22;38366;53.176;6.540;2023-02-16T00:31:31;5.50;99.90
52451;DHT22;38366;53.176;6.540;2023-02-16T00:33:58;5.50;99.90
52451;DHT22;38366;53.176;6.540;2023-02-16T00:36:24;5.80;99.90
52451;DHT22;38366;53.176;6.540;2023-02-16T00:38:50;5.50;99.90
52451;DHT22;38366;53.176;6.540;2023-02-16T00:41:22;6.10;99.90
52451;DHT22;38366;53.176;6.540;2023-02-16T00:44:17;5.50;99.90
52451;DHT22;38366;53.176;6.540;2023-02-16T00:46:44;5.40;99.90
52451;DHT22;38366;53.176;6.540;2023-02-16T00:49:18;5.40;99.90
52451;DHT22;38366;53.176;6.540;2023-02-16T00:51:44;5.50;99.90
52451;DHT22;38366;53.176;6.540;2023-02-16T00:54:10;5.50;99.90
52451;DHT22;38366;53.176;6.540;2023-02-16T00:56:37;5.40;99.90
52451;DHT22;38366;53.176;6.540;2023-02-16T00:59:05;5.90;99.90
52451;DHT22;38366;53.176;6.540;2023-02-16T01:01:33;5.40;99.90
52451;DHT22;38366;53.176;6.540;2023-02-16T01:04:01;5.50;99.90
52451;DHT22;38366;53.176;6.540;2023-02-16T01:06:27;5.40;99.90
52451;DHT22;38366;53.176;6.540;2023-02-16T01:09:14;5.40;99.90
52451;DHT22;38366;53.176;6.540;2023-02-16T01:11:59;5.40;99.90
52451;DHT22;38366;53.176;6.540;2023-02-16T01:14:25;5.30;99.90
52451;DHT22;38366;53.176;6.540;2023-02-16T01:16:51;5.30;99.90
52451;DHT22;38366;53.176;6.540;2023-02-16T01:19:16;5.40;99.90
52451;DHT22;38366;53.176;6.540;2023-02-16T01:21:42;5.30;99.90
52451;DHT22;38366;53.176;6.540;2023-02-16T01:24:08;5.30;99.90
52451;DHT22;38366;53.176;6.540;2023-02-16T01:26:39;5.20;99.90
52451;DHT22;38366;53.176;6.540;2023-02-16T01:29:06;5.20;99.90
52451;DHT22;38366;53.176;6.540;2023-02-16T01:31:35;5.20;99.90
52451;DHT22;38366;53.176;6.540;2023-02-16T01:34:01;5.10;99.90
52451;DHT22;38366;53.176;6.540;2023-02-16T01:36:44;6.00;99.90
52451;DHT22;38366;53.176;6.540;2023-02-16T01:39:16;5.00;99.90
52451;DHT22;38366;53.176;6.540;2023-02-16T01:47:38;5.00;99.90
52451;DHT22;38366;53.176;6.540;2023-02-16T01:50:24;4.90;99.90
52451;DHT22;38366;53.176;6.540;2023-02-16T01:53:00;4.80;99.90
52451;DHT22;38366;53.176;6.540;2023-02-16T01:55:37;5.20;99.90
52451;DHT22;38366;53.176;6.540;2023-02-16T01:58:14;4.70;99.90
52451;DHT22;38366;53.176;6.540;2023-02-16T02:03:30;5.00;99.90
52451;DHT22;38366;53.176;6.540;2023-02-16T02:06:32;5.10;99.90
52451;DHT22;38366;53.176;6.540;2023-02-16T02:11:40;5.00;99.90
52451;DHT22;38366;53.176;6.540;2023-02-16T02:14:18;4.70;99.90
52451;DHT22;38366;53.176;6.540;2023-02-16T02:17:05;5.10;99.90
52451;DHT22;38366;53.176;6.540;2023-02-16T02:19:46;4.60;99.90
52451;DHT22;38366;53.176;6.540;2023-02-16T02:31:09;4.70;99.90
52451;DHT22;38366;53.176;6.540;2023-02-16T02:42:08;4.80;99.90
52451;DHT22;38366;53.176;6.540;2023-02-16T02:44:51;4.80;99.90
52451;DHT22;38366;53.176;6.540;2023-02-16T02:47:17;4.80;99.90
52451;DHT22;38366;53.176;6.540;2023-02-16T02:49:53;4.80;99.90
52451;DHT22;38366;53.176;6.540;2023-02-16T02:52:22;4.90;99.90
52451;DHT22;38366;53.176;6.540;2023-02-16T02:54:48;4.90;99.90
52451;DHT22;38366;53.176;6.540;2023-02-16T02:57:45;4.90;99.90
52451;DHT22;38366;53.176;6.540;2023-02-16T03:00:34;4.90;99.90
52451;DHT22;38366;53.176;6.540;2023-02-16T03:03:10;4.90;99.90
52451;DHT22;38366;53.176;6.540;2023-02-16T03:05:38;5.10;99.90
52451;DHT22;38366;53.176;6.540;2023-02-16T03:08:08;5.00;99.90
52451;DHT22;38366;53.176;6.540;2023-02-16T03:10:46;5.60;99.90
52451;DHT22;38366;53.176;6.540;2023-02-16T03:13:35;4.90;99.90
52451;DHT22;38366;53.176;6.540;2023-02-16T03:18:49;4.90;99.90
52451;DHT22;38366;53.176;6.540;2023-02-16T03:21:34;5.30;99.90
52451;DHT22;38366;53.176;6.540;2023-02-16T03:24:26;5.40;99.90
52451;DHT22;38366;53.176;6.540;2023-02-16T03:27:13;4.80;99.90
52451;DHT22;38366;53.176;6.540;2023-02-16T03:29:59;4.90;99.90
52451;DHT22;38366;53.176;6.540;2023-02-16T03:32:26;4.80;99.90
52451;DHT22;38366;53.176;6.540;2023-02-16T03:34:51;4.80;99.90
52451;DHT22;38366;53.176;6.540;2023-02-16T03:37:17;5.10;99.90
52451;DHT22;38366;53.176;6.540;2023-02-16T03:39:43;5.20;99.90
52451;DHT22;38366;53.176;6.540;2023-02-16T03:42:28;4.90;99.90
52451;DHT22;38366;53.176;6.540;2023-02-16T03:44:53;5.20;99.90
52451;DHT22;38366;53.176;6.540;2023-02-16T03:47:19;5.20;99.90
52451;DHT22;38366;53.176;6.540;2023-02-16T03:49:45;5.10;99.90
52451;DHT22;38366;53.176;6.540;2023-02-16T03:52:10;5.10;99.90
52451;DHT22;38366;53.176;6.540;2023-02-16T03:54:36;5.30;99.90
52451;DHT22;38366;53.176;6.540;2023-02-16T03:57:02;5.40;99.90
52451;DHT22;38366;53.176;6.540;2023-02-16T03:59:28;5.50;99.90
52451;DHT22;38366;53.176;6.540;2023-02-16T04:01:53;5.60;99.90
52451;DHT22;38366;53.176;6.540;2023-02-16T04:04:19;5.70;99.90
52451;DHT22;38366;53.176;6.540;2023-02-16T04:06:45;5.70;99.90
52451;DHT22;38366;53.176;6.540;2023-02-16T04:09:10;6.30;99.90
52451;DHT22;38366;53.176;6.540;2023-02-16T04:11:36;5.90;99.90
52451;DHT22;38366;53.176;6.540;2023-02-16T04:14:20;5.90;99.90
52451;DHT22;38366;53.176;6.540;2023-02-16T04:16:46;5.90;99.90
52451;DHT22;38366;53.176;6.540;2023-02-16T04:19:12;5.90;99.90
52451;DHT22;38366;53.176;6.540;2023-02-16T04:21:37;6.00;99.90
52451;DHT22;38366;53.176;6.540;2023-02-16T04:24:04;6.10;99.90
52451;DHT22;38366;53.176;6.540;2023-02-16T04:26:31;6.00;99.90
52451;DHT22;38366;53.176;6.540;2023-02-16T04:28:59;6.00;99.90
52451;DHT22;38366;53.176;6.540;2023-02-16T04:31:24;6.10;99.90
52451;DHT22;38366;53.176;6.540;2023-02-16T04:33:50;6.30;99.90
52451;DHT22;38366;53.176;6.540;2023-02-16T04:36:16;6.10;99.90
52451;DHT22;38366;53.176;6.540;2023-02-16T04:38:42;6.10;99.90
52451;DHT22;38366;53.176;6.540;2023-02-16T04:41:07;6.20;99.90
52451;DHT22;38366;53.176;6.540;2023-02-16T04:43:33;6.10;99.90
52451;DHT22;38366;53.176;6.540;2023-02-16T04:45:59;6.30;99.90
52451;DHT22;38366;53.176;6.540;2023-02-16T04:48:25;6.10;99.90
52451;DHT22;38366;53.176;6.540;2023-02-16T04:50:51;6.40;99.90
52451;DHT22;38366;53.176;6.540;2023-02-16T04:53:16;6.20;99.90
52451;DHT22;38366;53.176;6.540;2023-02-16T04:55:49;6.10;99.90
52451;DHT22;38366;53.176;6.540;2023-02-16T04:58:15;6.10;99.90
52451;DHT22;38366;53.176;6.540;2023-02-16T05:00:41;6.10;99.90
52451;DHT22;38366;53.176;6.540;2023-02-16T05:03:08;6.20;99.90
52451;DHT22;38366;53.176;6.540;2023-02-16T05:05:33;6.20;99.90
52451;DHT22;38366;53.176;6.540;2023-02-16T05:08:00;6.20;99.90
52451;DHT22;38366;53.176;6.540;2023-02-16T05:10:26;6.30;99.90
52451;DHT22;38366;53.176;6.540;2023-02-16T05:12:52;6.20;99.90
52451;DHT22;38366;53.176;6.540;2023-02-16T05:15:37;6.30;99.90
52451;DHT22;38366;53.176;6.540;2023-02-16T05:18:03;6.30;99.90
52451;DHT22;38366;53.176;6.540;2023-02-16T05:20:29;6.30;99.90
52451;DHT22;38366;53.176;6.540;2023-02-16T05:23:13;6.30;99.90
52451;DHT22;38366;53.176;6.540;2023-02-16T05:25:38;6.50;99.90
52451;DHT22;38366;53.176;6.540;2023-02-16T05:28:04;6.30;99.90
52451;DHT22;38366;53.176;6.540;2023-02-16T05:30:30;6.30;99.90
52451;DHT22;38366;53.176;6.540;2023-02-16T05:32:56;6.30;99.90
52451;DHT22;38366;53.176;6.540;2023-02-16T05:35:22;6.30;99.90
52451;DHT22;38366;53.176;6.540;2023-02-16T05:37:47;6.20;99.90
52451;DHT22;38366;53.176;6.540;2023-02-16T05:40:13;6.60;99.90
52451;DHT22;38366;53.176;6.540;2023-02-16T05:42:39;6.20;99.90
52451;DHT22;38366;53.176;6.540;2023-02-16T05:45:05;6.30;99.90
52451;DHT22;38366;53.176;6.540;2023-02-16T05:47:30;6.30;99.90
52451;DHT22;38366;53.176;6.540;2023-02-16T05:49:56;6.30;99.90
52451;DHT22;38366;53.176;6.540;2023-02-16T05:52:22;6.40;99.90
52451;DHT22;38366;53.176;6.540;2023-02-16T05:54:47;6.50;99.90
52451;DHT22;38366;53.176;6.540;2023-02-16T05:57:13;6.40;99.90
52451;DHT22;38366;53.176;6.540;2023-02-16T05:59:39;6.40;99.90
52451;DHT22;38366;53.176;6.540;2023-02-16T06:02:04;6.40;99.90
52451;DHT22;38366;53.176;6.540;2023-02-16T06:04:30;6.30;99.90
52451;DHT22;38366;53.176;6.540;2023-02-16T06:06:57;6.40;99.90
52451;DHT22;38366;53.176;6.540;2023-02-16T06:09:23;6.30;99.90
52451;DHT22;38366;53.176;6.540;2023-02-16T06:11:48;6.30;99.90
52451;DHT22;38366;53.176;6.540;2023-02-16T06:14:19;6.30;99.90
52451;DHT22;38366;53.176;6.540;2023-02-16T06:16:47;6.50;99.90
52451;DHT22;38366;53.176;6.540;2023-02-16T06:19:14;6.40;99.90
52451;DHT22;38366;53.176;6.540;2023-02-16T06:21:40;6.40;99.90
52451;DHT22;38366;53.176;6.540;2023-02-16T06:24:08;6.40;99.90
52451;DHT22;38366;53.176;6.540;2023-02-16T06:26:34;6.50;99.90
52451;DHT22;38366;53.176;6.540;2023-02-16T06:29:00;6.40;99.90
52451;DHT22;38366;53.176;6.540;2023-02-16T06:31:26;6.40;99.90
52451;DHT22;38366;53.176;6.540;2023-02-16T06:33:52;6.40;99.90
52451;DHT22;38366;53.176;6.540;2023-02-16T06:36:18;6.30;99.90
52451;DHT22;38366;53.176;6.540;2023-02-16T06:38:44;6.40;99.90
52451;DHT22;38366;53.176;6.540;2023-02-16T06:41:10;6.30;99.90
52451;DHT22;38366;53.176;6.540;2023-02-16T06:43:36;6.80;99.90
52451;DHT22;38366;53.176;6.540;2023-02-16T06:46:02;6.30;99.90
52451;DHT22;38366;53.176;6.540;2023-02-16T06:48:28;6.30;99.90
52451;DHT22;38366;53.176;6.540;2023-02-16T06:50:54;6.30;99.90
52451;DHT22;38366;53.176;6.540;2023-02-16T06:53:19;6.30;99.90
52451;DHT22;38366;53.176;6.540;2023-02-16T06:55:45;6.40;99.90
52451;DHT22;38366;53.176;6.540;2023-02-16T06:58:11;6.30;99.90
52451;DHT22;38366;53.176;6.540;2023-02-16T07:00:37;6.40;99.90
52451;DHT22;38366;53.176;6.540;2023-02-16T07:03:03;6.30;99.90
52451;DHT22;38366;53.176;6.540;2023-02-16T07:05:29;6.40;99.90
52451;DHT22;38366;53.176;6.540;2023-02-16T07:07:55;6.40;99.90
52451;DHT22;38366;53.176;6.540;2023-02-16T07:10:20;6.40;99.90
52451;DHT22;38366;53.176;6.540;2023-02-16T07:12:47;6.40;99.90
52451;DHT22;38366;53.176;6.540;2023-02-16T07:15:13;6.50;99.90
52451;DHT22;38366;53.176;6.540;2023-02-16T07:17:38;6.40;99.90
52451;DHT22;38366;53.176;6.540;2023-02-16T07:20:05;6.50;99.90
52451;DHT22;38366;53.176;6.540;2023-02-16T07:22:31;6.50;99.90
52451;DHT22;38366;53.176;6.540;2023-02-16T07:24:57;6.50;99.90
52451;DHT22;38366;53.176;6.540;2023-02-16T07:27:25;6.60;99.90
52451;DHT22;38366;53.176;6.540;2023-02-16T07:29:51;6.50;99.90
52451;DHT22;38366;53.176;6.540;2023-02-16T07:32:17;6.60;99.90
52451;DHT22;38366;53.176;6.540;2023-02-16T07:34:42;6.60;99.90
52451;DHT22;38366;53.176;6.540;2023-02-16T07:37:10;6.70;99.90
52451;DHT22;38366;53.176;6.540;2023-02-16T07:39:36;6.70;99.90
52451;DHT22;38366;53.176;6.540;2023-02-16T07:42:02;6.80;99.90
52451;DHT22;38366;53.176;6.540;2023-02-16T07:44:28;6.70;99.90
52451;DHT22;38366;53.176;6.540;2023-02-16T07:46:53;6.80;99.90
52451;DHT22;38366;53.176;6.540;2023-02-16T07:49:19;6.80;99.90
52451;DHT22;38366;53.176;6.540;2023-02-16T07:51:45;6.70;99.90
52451;DHT22;38366;53.176;6.540;2023-02-16T07:54:11;6.80;99.90
52451;DHT22;38366;53.176;6.540;2023-02-16T07:56:36;6.80;99.90
52451;DHT22;38366;53.176;6.540;2023-02-16T07:59:03;6.80;99.90
52451;DHT22;38366;53.176;6.540;2023-02-16T08:01:29;6.80;99.90
52451;DHT22;38366;53.176;6.540;2023-02-16T08:03:55;6.90;99.90
52451;DHT22;38366;53.176;6.540;2023-02-16T08:06:21;6.90;99.90
52451;DHT22;38366;53.176;6.540;2023-02-16T08:08:48;6.80;99.90
52451;DHT22;38366;53.176;6.540;2023-02-16T08:11:16;6.90;99.90
52451;DHT22;38366;53.176;6.540;2023-02-16T08:13:42;6.90;99.90
52451;DHT22;38366;53.176;6.540;2023-02-16T08:16:10;6.90;99.90
52451;DHT22;38366;53.176;6.540;2023-02-16T08:18:36;6.90;99.90
52451;DHT22;38366;53.176;6.540;2023-02-16T08:21:06;6.90;99.90
52451;DHT22;38366;53.176;6.540;2023-02-16T08:23:39;7.00;99.90
52451;DHT22;38366;53.176;6.540;2023-02-16T08:26:10;7.10;99.90
52451;DHT22;38366;53.176;6.540;2023-02-16T08:28:37;7.10;99.90
52451;DHT22;38366;53.176;6.540;2023-02-16T08:31:03;7.20;99.90
52451;DHT22;38366;53.176;6.540;2023-02-16T08:33:29;7.10;99.90
52451;DHT22;38366;53.176;6.540;2023-02-16T08:35:54;7.20;99.90
52451;DHT22;38366;53.176;6.540;2023-02-16T08:38:20;7.10;99.90
52451;DHT22;38366;53.176;6.540;2023-02-16T08:40:49;7.20;99.90
52451;DHT22;38366;53.176;6.540;2023-02-16T08:43:15;7.20;99.90
52451;DHT22;38366;53.176;6.540;2023-02-16T08:45:45;7.20;99.90
52451;DHT22;38366;53.176;6.540;2023-02-16T08:48:12;7.20;99.90
52451;DHT22;38366;53.176;6.540;2023-02-16T08:50:45;7.30;99.90
52451;DHT22;38366;53.176;6.540;2023-02-16T08:53:12;7.30;99.90
52451;DHT22;38366;53.176;6.540;2023-02-16T08:55:39;7.30;99.90
52451;DHT22;38366;53.176;6.540;2023-02-16T08:58:05;7.40;99.90
52451;DHT22;38366;53.176;6.540;2023-02-16T09:00:31;7.40;99.90
52451;DHT22;38366;53.176;6.540;2023-02-16T09:02:59;7.30;99.90
52451;DHT22;38366;53.176;6.540;2023-02-16T09:05:26;7.40;99.90
52451;DHT22;38366;53.176;6.540;2023-02-16T09:07:55;7.50;99.90
52451;DHT22;38366;53.176;6.540;2023-02-16T09:10:21;7.50;99.90
52451;DHT22;38366;53.176;6.540;2023-02-16T09:12:48;7.50;99.90
52451;DHT22;38366;53.176;6.540;2023-02-16T09:15:15;7.50;99.90
52451;DHT22;38366;53.176;6.540;2023-02-16T09:17:41;7.60;99.90
52451;DHT22;38366;53.176;6.540;2023-02-16T09:20:11;7.60;99.90
52451;DHT22;38366;53.176;6.540;2023-02-16T09:22:37;7.70;99.90
52451;DHT22;38366;53.176;6.540;2023-02-16T09:25:04;7.70;99.90
52451;DHT22;38366;53.176;6.540;2023-02-16T09:27:31;7.70;99.90
52451;DHT22;38366;53.176;6.540;2023-02-16T09:29:59;7.60;99.90
52451;DHT22;38366;53.176;6.540;2023-02-16T09:32:28;7.70;99.90
52451;DHT22;38366;53.176;6.540;2023-02-16T09:34:55;7.70;99.90
52451;DHT22;38366;53.176;6.540;2023-02-16T09:37:20;7.70;99.90
52451;DHT22;38366;53.176;6.540;2023-02-16T09:39:46;7.80;99.90
52451;DHT22;38366;53.176;6.540;2023-02-16T09:45:10;7.90;99.90
52451;DHT22;38366;53.176;6.540;2023-02-16T09:47:40;8.00;99.90
52451;DHT22;38366;53.176;6.540;2023-02-16T09:53:05;8.10;99.90
52451;DHT22;38366;53.176;6.540;2023-02-16T09:56:25;8.20;99.90
52451;DHT22;38366;53.176;6.540;2023-02-16T09:58:48;8.20;99.90
52451;DHT22;38366;53.176;6.540;2023-02-16T10:04:32;8.40;99.90
52451;DHT22;38366;53.176;6.540;2023-02-16T10:09:50;8.40;99.90
52451;DHT22;38366;53.176;6.540;2023-02-16T10:12:22;8.40;99.90
52451;DHT22;38366;53.176;6.540;2023-02-16T10:15:02;8.40;99.90
52451;DHT22;38366;53.176;6.540;2023-02-16T10:25:39;8.40;99.90
52451;DHT22;38366;53.176;6.540;2023-02-16T10:28:16;8.40;99.90
52451;DHT22;38366;53.176;6.540;2023-02-16T10:30:49;8.50;99.90
52451;DHT22;38366;53.176;6.540;2023-02-16T10:33:39;8.50;99.90
52451;DHT22;38366;53.176;6.540;2023-02-16T10:36:27;8.50;99.90
52451;DHT22;38366;53.176;6.540;2023-02-16T10:39:05;8.50;99.90
52451;DHT22;38366;53.176;6.540;2023-02-16T10:41:41;8.60;99.90
52451;DHT22;38366;53.176;6.540;2023-02-16T10:44:21;8.50;99.90
52451;DHT22;38366;53.176;6.540;2023-02-16T10:46:56;8.50;99.90
52451;DHT22;38366;53.176;6.540;2023-02-16T10:49:23;8.50;99.90
52451;DHT22;38366;53.176;6.540;2023-02-16T10:51:52;8.40;99.90
52451;DHT22;38366;53.176;6.540;2023-02-16T10:54:22;8.40;99.90
52451;DHT22;38366;53.176;6.540;2023-02-16T10:56:51;8.40;99.90
52451;DHT22;38366;53.176;6.540;2023-02-16T10:59:22;8.40;99.90
52451;DHT22;38366;53.176;6.540;2023-02-16T11:01:58;8.40;99.90
52451;DHT22;38366;53.176;6.540;2023-02-16T11:04:34;8.40;99.90
52451;DHT22;38366;53.176;6.540;2023-02-16T11:07:25;8.30;99.90
52451;DHT22;38366;53.176;6.540;2023-02-16T11:09:54;8.40;99.90
52451;DHT22;38366;53.176;6.540;2023-02-16T11:17:53;8.50;99.90
52451;DHT22;38366;53.176;6.540;2023-02-16T11:26:25;8.50;99.90
52451;DHT22;38366;53.176;6.540;2023-02-16T11:28:51;8.50;99.90
52451;DHT22;38366;53.176;6.540;2023-02-16T11:31:18;8.50;99.90
52451;DHT22;38366;53.176;6.540;2023-02-16T11:36:48;8.60;99.90
52451;DHT22;38366;53.176;6.540;2023-02-16T11:39:20;8.60;99.90
52451;DHT22;38366;53.176;6.540;2023-02-16T11:41:57;8.70;99.90
52451;DHT22;38366;53.176;6.540;2023-02-16T11:44:31;8.60;99.90
52451;DHT22;38366;53.176;6.540;2023-02-16T11:47:02;8.60;99.90
52451;DHT22;38366;53.176;6.540;2023-02-16T11:52:00;8.70;99.90
52451;DHT22;38366;53.176;6.540;2023-02-16T11:54:26;8.70;99.90
52451;DHT22;38366;53.176;6.540;2023-02-16T11:57:06;8.80;99.90
52451;DHT22;38366;53.176;6.540;2023-02-16T11:59:36;8.90;99.90
52451;DHT22;38366;53.176;6.540;2023-02-16T12:02:23;9.00;99.90
52451;DHT22;38366;53.176;6.540;2023-02-16T12:16:40;9.00;99.90
52451;DHT22;38366;53.176;6.540;2023-02-16T12:19:30;9.00;99.90
52451;DHT22;38366;53.176;6.540;2023-02-16T12:31:03;9.80;99.90
52451;DHT22;38366;53.176;6.540;2023-02-16T12:36:40;10.70;99.90
52451;DHT22;38366;53.176;6.540;2023-02-16T12:45:03;11.80;99.90
52451;DHT22;38366;53.176;6.540;2023-02-16T12:47:41;11.80;99.90
52451;DHT22;38366;53.176;6.540;2023-02-16T12:50:24;11.70;99.90
52451;DHT22;38366;53.176;6.540;2023-02-16T12:53:21;11.60;99.90
52451;DHT22;38366;53.176;6.540;2023-02-16T12:56:11;11.50;99.90
52451;DHT22;38366;53.176;6.540;2023-02-16T12:58:42;11.80;99.90
52451;DHT22;38366;53.176;6.540;2023-02-16T13:01:15;11.90;99.90
52451;DHT22;38366;53.176;6.540;2023-02-16T13:04:00;11.90;99.90
52451;DHT22;38366;53.176;6.540;2023-02-16T13:06:40;11.90;99.90
52451;DHT22;38366;53.176;6.540;2023-02-16T13:09:22;11.60;99.90
52451;DHT22;38366;53.176;6.540;2023-02-16T13:11:58;11.50;99.90
52451;DHT22;38366;53.176;6.540;2023-02-16T13:14:32;11.40;99.90
52451;DHT22;38366;53.176;6.540;2023-02-16T13:17:02;11.20;99.90
52451;DHT22;38366;53.176;6.540;2023-02-16T13:19:29;11.10;99.90
52451;DHT22;38366;53.176;6.540;2023-02-16T13:33:12;11.20;99.90
52451;DHT22;38366;53.176;6.540;2023-02-16T13:41:50;11.40;99.90
52451;DHT22;38366;53.176;6.540;2023-02-16T13:44:22;11.50;99.90
52451;DHT22;38366;53.176;6.540;2023-02-16T13:46:51;11.50;99.90
52451;DHT22;38366;53.176;6.540;2023-02-16T13:49:39;11.60;99.90
52451;DHT22;38366;53.176;6.540;2023-02-16T13:52:31;11.60;99.90
52451;DHT22;38366;53.176;6.540;2023-02-16T13:54:59;11.60;99.90
52451;DHT22;38366;53.176;6.540;2023-02-16T14:00:34;11.50;99.90
52451;DHT22;38366;53.176;6.540;2023-02-16T14:05:45;11.40;99.90
52451;DHT22;38366;53.176;6.540;2023-02-16T14:08:12;11.30;99.90
52451;DHT22;38366;53.176;6.540;2023-02-16T14:18:59;11.00;99.90
52451;DHT22;38366;53.176;6.540;2023-02-16T14:21:38;10.90;99.90
52451;DHT22;38366;53.176;6.540;2023-02-16T14:24:22;10.90;99.90
52451;DHT22;38366;53.176;6.540;2023-02-16T14:26:55;10.90;99.90
52451;DHT22;38366;53.176;6.540;2023-02-16T14:32:32;10.90;99.90
52451;DHT22;38366;53.176;6.540;2023-02-16T14:35:19;10.90;99.90
52451;DHT22;38366;53.176;6.540;2023-02-16T14:40:37;10.80;99.90
52451;DHT22;38366;53.176;6.540;2023-02-16T14:57:19;10.60;99.90
52451;DHT22;38366;53.176;6.540;2023-02-16T15:02:58;10.30;99.90
52451;DHT22;38366;53.176;6.540;2023-02-16T15:05:29;10.30;99.90
52451;DHT22;38366;53.176;6.540;2023-02-16T15:08:18;10.30;99.90
52451;DHT22;38366;53.176;6.540;2023-02-16T15:10:49;10.20;99.90
52451;DHT22;38366;53.176;6.540;2023-02-16T15:13:29;10.20;99.90
52451;DHT22;38366;53.176;6.540;2023-02-16T15:15:56;10.20;99.90
52451;DHT22;38366;53.176;6.540;2023-02-16T15:18:33;10.20;99.90
52451;DHT22;38366;53.176;6.540;2023-02-16T15:21:02;10.20;99.90
52451;DHT22;38366;53.176;6.540;2023-02-16T15:23:30;10.20;99.90
52451;DHT22;38366;53.176;6.540;2023-02-16T15:26:04;10.20;99.90
52451;DHT22;38366;53.176;6.540;2023-02-16T15:28:36;10.20;99.90
52451;DHT22;38366;53.176;6.540;2023-02-16T15:31:07;10.10;99.90
52451;DHT22;38366;53.176;6.540;2023-02-16T15:33:43;10.00;99.90
52451;DHT22;38366;53.176;6.540;2023-02-16T15:36:11;10.00;99.90
52451;DHT22;38366;53.176;6.540;2023-02-16T15:41:36;9.90;99.90
52451;DHT22;38366;53.176;6.540;2023-02-16T15:44:04;9.80;99.90
52451;DHT22;38366;53.176;6.540;2023-02-16T15:46:34;9.70;99.90
52451;DHT22;38366;53.176;6.540;2023-02-16T15:49:18;9.60;99.90
52451;DHT22;38366;53.176;6.540;2023-02-16T15:51:46;9.50;99.90
52451;DHT22;38366;53.176;6.540;2023-02-16T15:54:22;9.50;99.90
52451;DHT22;38366;53.176;6.540;2023-02-16T15:56:57;9.50;99.90
52451;DHT22;38366;53.176;6.540;2023-02-16T16:02:03;9.30;99.90
52451;DHT22;38366;53.176;6.540;2023-02-16T16:04:38;9.30;99.90
52451;DHT22;38366;53.176;6.540;2023-02-16T16:07:05;9.30;99.90
52451;DHT22;38366;53.176;6.540;2023-02-16T16:09:34;9.20;99.90
52451;DHT22;38366;53.176;6.540;2023-02-16T16:12:05;9.20;99.90
52451;DHT22;38366;53.176;6.540;2023-02-16T16:14:35;9.30;99.90
52451;DHT22;38366;53.176;6.540;2023-02-16T16:17:03;9.20;99.90
52451;DHT22;38366;53.176;6.540;2023-02-16T16:19:33;9.20;99.90
52451;DHT22;38366;53.176;6.540;2023-02-16T16:21:58;9.20;99.90
52451;DHT22;38366;53.176;6.540;2023-02-16T16:24:33;9.10;99.90
52451;DHT22;38366;53.176;6.540;2023-02-16T16:27:11;9.10;99.90
52451;DHT22;38366;53.176;6.540;2023-02-16T16:29:43;9.10;99.90
52451;DHT22;38366;53.176;6.540;2023-02-16T16:32:36;9.10;99.90
52451;DHT22;38366;53.176;6.540;2023-02-16T16:35:20;9.10;99.90
52451;DHT22;38366;53.176;6.540;2023-02-16T16:37:51;9.00;99.90
52451;DHT22;38366;53.176;6.540;2023-02-16T16:45:42;9.00;99.90
52451;DHT22;38366;53.176;6.540;2023-02-16T16:48:26;9.00;99.90
52451;DHT22;38366;53.176;6.540;2023-02-16T16:51:35;9.00;99.90
52451;DHT22;38366;53.176;6.540;2023-02-16T16:54:05;9.00;99.90
52451;DHT22;38366;53.176;6.540;2023-02-16T16:56:37;9.00;99.90
52451;DHT22;38366;53.176;6.540;2023-02-16T16:59:04;9.00;99.90
52451;DHT22;38366;53.176;6.540;2023-02-16T17:01:30;9.00;99.90
52451;DHT22;38366;53.176;6.540;2023-02-16T17:03:58;9.00;99.90
52451;DHT22;38366;53.176;6.540;2023-02-16T17:06:25;9.80;99.90
52451;DHT22;38366;53.176;6.540;2023-02-16T17:08:51;9.00;99.90
52451;DHT22;38366;53.176;6.540;2023-02-16T17:11:29;9.00;99.90
52451;DHT22;38366;53.176;6.540;2023-02-16T17:14:08;9.00;99.90
52451;DHT22;38366;53.176;6.540;2023-02-16T17:16:44;8.90;99.90
52451;DHT22;38366;53.176;6.540;2023-02-16T17:19:14;8.90;99.90
52451;DHT22;38366;53.176;6.540;2023-02-16T17:21:41;8.90;99.90
52451;DHT22;38366;53.176;6.540;2023-02-16T17:24:07;8.90;99.90
52451;DHT22;38366;53.176;6.540;2023-02-16T17:26:34;9.00;99.90
52451;DHT22;38366;53.176;6.540;2023-02-16T17:29:01;9.00;99.90
52451;DHT22;38366;53.176;6.540;2023-02-16T17:31:26;9.00;99.90
52451;DHT22;38366;53.176;6.540;2023-02-16T17:33:52;9.00;99.90
52451;DHT22;38366;53.176;6.540;2023-02-16T17:36:19;9.00;99.90
52451;DHT22;38366;53.176;6.540;2023-02-16T17:38:47;9.00;99.90
52451;DHT22;38366;53.176;6.540;2023-02-16T17:41:22;9.00;99.90
52451;DHT22;38366;53.176;6.540;2023-02-16T17:43:49;9.30;99.90
52451;DHT22;38366;53.176;6.540;2023-02-16T17:46:16;9.10;99.90
52451;DHT22;38366;53.176;6.540;2023-02-16T17:48:42;9.00;99.90
52451;DHT22;38366;53.176;6.540;2023-02-16T17:51:13;9.00;99.90
52451;DHT22;38366;53.176;6.540;2023-02-16T17:53:39;9.00;99.90
52451;DHT22;38366;53.176;6.540;2023-02-16T17:56:05;9.00;99.90
52451;DHT22;38366;53.176;6.540;2023-02-16T17:58:31;9.00;99.90
52451;DHT22;38366;53.176;6.540;2023-02-16T18:00:57;9.00;99.90
52451;DHT22;38366;53.176;6.540;2023-02-16T18:03:22;9.00;99.90
52451;DHT22;38366;53.176;6.540;2023-02-16T18:05:50;9.00;99.90
52451;DHT22;38366;53.176;6.540;2023-02-16T18:08:15;9.00;99.90
52451;DHT22;38366;53.176;6.540;2023-02-16T18:13:46;9.00;99.90
52451;DHT22;38366;53.176;6.540;2023-02-16T18:16:17;8.90;99.90
52451;DHT22;38366;53.176;6.540;2023-02-16T18:18:44;8.90;99.90
52451;DHT22;38366;53.176;6.540;2023-02-16T18:21:10;9.00;99.90
52451;DHT22;38366;53.176;6.540;2023-02-16T18:23:37;9.00;99.90
52451;DHT22;38366;53.176;6.540;2023-02-16T18:26:07;9.00;99.90
52451;DHT22;38366;53.176;6.540;2023-02-16T18:28:33;9.00;99.90
52451;DHT22;38366;53.176;6.540;2023-02-16T18:30:59;9.00;99.90
52451;DHT22;38366;53.176;6.540;2023-02-16T18:33:26;8.90;99.90
52451;DHT22;38366;53.176;6.540;2023-02-16T18:35:54;8.90;99.90
52451;DHT22;38366;53.176;6.540;2023-02-16T18:38:22;9.00;99.90
52451;DHT22;38366;53.176;6.540;2023-02-16T18:40:48;9.00;99.90
52451;DHT22;38366;53.176;6.540;2023-02-16T18:43:14;9.00;99.90
52451;DHT22;38366;53.176;6.540;2023-02-16T18:45:40;9.10;99.90
52451;DHT22;38366;53.176;6.540;2023-02-16T18:48:06;9.00;99.90
52451;DHT22;38366;53.176;6.540;2023-02-16T18:50:32;9.00;99.90
52451;DHT22;38366;53.176;6.540;2023-02-16T18:52:58;9.00;99.90